Time;durP1;ratioP1;P1;durP2;ratioP2;P2;SDS_P1;SDS_P2;PMS_P1;PMS_P2;Temp;Humidity;BMP_temperature;BMP_pressure;BME280_temperature;BME280_humidity;BME280_pressure;Samples;Min_cycle;Max_cycle;Signal;HPM_P1;HPM_P2
2022/04/14 00:01:33;;;;;;;2.28;2.08;;;11.50;63.60;;;;;;5036204;28;20430;-64
2022/04/14 00:03:59;;;;;;;3.38;2.22;;;11.50;63.60;;;;;;5036093;28;20108;-64
2022/04/14 00:06:25;;;;;;;2.22;2.00;;;11.50;63.60;;;;;;5035831;28;20044;-64
2022/04/14 00:08:54;;;;;;;2.42;2.13;;;11.50;63.60;;;;;;5036253;28;20083;-64
2022/04/14 00:11:20;;;;;;;2.40;2.20;;;11.50;63.60;;;;;;5036224;28;20029;-64
2022/04/14 00:13:46;;;;;;;2.03;1.83;;;11.50;63.60;;;;;;5036070;28;20087;-64
2022/04/14 00:16:12;;;;;;;2.20;2.00;;;11.50;63.60;;;;;;5036055;28;20026;-64
2022/04/14 00:18:38;;;;;;;3.22;2.30;;;11.50;63.60;;;;;;5035824;28;20375;-64
2022/04/14 00:21:03;;;;;;;2.20;2.00;;;11.50;63.60;;;;;;5035706;28;20042;-64
2022/04/14 00:23:29;;;;;;;2.85;2.10;;;11.50;63.60;;;;;;5036074;28;20053;-65
2022/04/14 00:25:55;;;;;;;2.65;2.10;;;11.50;63.60;;;;;;5036104;28;20041;-64
2022/04/14 00:28:20;;;;;;;2.15;1.90;;;11.50;63.60;;;;;;5035914;28;20029;-64
2022/04/14 00:30:46;;;;;;;2.10;1.90;;;11.50;63.60;;;;;;5035504;28;20029;-64
2022/04/14 00:33:12;;;;;;;2.67;2.10;;;11.50;63.60;;;;;;5034523;28;20128;-64
2022/04/14 00:35:37;;;;;;;2.20;1.90;;;11.50;63.60;;;;;;5034289;28;20029;-64
2022/04/14 00:38:03;;;;;;;3.08;2.20;;;11.50;63.60;;;;;;5035815;28;20099;-64
2022/04/14 00:40:29;;;;;;;2.30;2.10;;;11.50;63.60;;;;;;5035793;28;20075;-65
2022/04/14 00:42:54;;;;;;;2.58;2.13;;;11.50;63.60;;;;;;5035731;28;20463;-64
2022/04/14 00:45:20;;;;;;;2.20;2.00;;;11.50;63.70;;;;;;5034299;28;20060;-64
2022/04/14 00:47:46;;;;;;;2.55;1.98;;;11.50;63.70;;;;;;5035429;28;20111;-64
2022/04/14 00:50:13;;;;;;;2.13;1.92;;;11.50;63.60;;;;;;5035250;28;20381;-64
2022/04/14 00:52:46;;;;;;;2.10;1.90;;;11.50;63.60;;;;;;5035647;28;20029;-64
2022/04/14 00:55:12;;;;;;;2.35;2.15;;;11.50;63.70;;;;;;5034741;28;20440;-64
2022/04/14 00:57:38;;;;;;;2.42;2.00;;;11.50;63.70;;;;;;5034604;28;20120;-65
2022/04/14 01:00:05;;;;;;;2.17;1.98;;;11.50;63.60;;;;;;5034888;28;20112;-64
2022/04/14 01:02:31;;;;;;;2.40;2.15;;;11.50;63.60;;;;;;5034587;28;20040;-64
2022/04/14 01:04:58;;;;;;;2.10;1.80;;;11.50;63.70;;;;;;5033703;28;20056;-64
2022/04/14 01:07:25;;;;;;;2.50;2.15;;;11.50;63.70;;;;;;5035577;28;20026;-65
2022/04/14 01:09:52;;;;;;;2.20;2.00;;;11.50;63.70;;;;;;5033788;28;20041;-64
2022/04/14 01:12:18;;;;;;;2.45;2.08;;;11.50;63.70;;;;;;5034532;28;20041;-64
2022/04/14 01:14:45;;;;;;;2.58;2.10;;;11.50;63.70;;;;;;5034715;28;20030;-64
2022/04/14 01:17:11;;;;;;;2.35;2.08;;;11.50;63.70;;;;;;5034866;28;20061;-64
2022/04/14 01:19:38;;;;;;;2.42;2.10;;;11.40;63.60;;;;;;5034977;28;20434;-65
2022/04/14 01:22:24;;;;;;;2.88;2.13;;;11.40;63.60;;;;;;5034182;28;20049;-64
2022/04/14 01:24:52;;;;;;;2.33;2.08;;;11.50;63.70;;;;;;5032935;28;20033;-64
2022/04/14 01:27:17;;;;;;;2.70;2.00;;;11.40;63.70;;;;;;5034125;28;20033;-64
2022/04/14 01:29:43;;;;;;;2.20;1.98;;;11.50;63.70;;;;;;5034465;28;20044;-64
2022/04/14 01:32:09;;;;;;;2.70;1.90;;;11.50;63.70;;;;;;5032929;28;20057;-64
2022/04/14 01:34:35;;;;;;;2.35;2.15;;;11.50;63.70;;;;;;5034733;28;20489;-65
2022/04/14 01:37:01;;;;;;;2.33;2.10;;;11.50;63.70;;;;;;5033528;28;20140;-64
2022/04/14 01:39:30;;;;;;;2.35;2.03;;;11.50;63.70;;;;;;5033966;28;20112;-64
2022/04/14 01:41:56;;;;;;;2.70;2.20;;;11.50;63.70;;;;;;5034481;28;20025;-64
2022/04/14 01:44:21;;;;;;;2.30;2.10;;;11.40;63.70;;;;;;5034258;28;20113;-64
2022/04/14 01:46:47;;;;;;;2.45;2.05;;;11.50;63.70;;;;;;5034018;28;20467;-64
2022/04/14 01:49:13;;;;;;;2.08;1.88;;;11.50;63.80;;;;;;5032895;28;20068;-64
2022/04/14 01:51:39;;;;;;;2.30;2.00;;;11.50;63.70;;;;;;5034343;28;20025;-64
2022/04/14 01:54:06;;;;;;;2.20;2.00;;;11.50;63.70;;;;;;5033961;28;20467;-64
2022/04/14 01:56:32;;;;;;;2.20;2.00;;;11.50;63.70;;;;;;5033728;28;20217;-63
2022/04/14 01:58:58;;;;;;;2.40;2.20;;;11.50;63.70;;;;;;5033960;28;20030;-64
2022/04/14 02:01:24;;;;;;;2.20;2.00;;;11.50;63.70;;;;;;5034297;28;20033;-64
2022/04/14 02:03:50;;;;;;;2.25;2.05;;;11.50;63.70;;;;;;5034142;28;20026;-64
2022/04/14 02:06:16;;;;;;;1.92;1.80;;;11.50;63.70;;;;;;5034092;28;20415;-64
2022/04/14 02:08:43;;;;;;;2.00;1.80;;;11.50;63.70;;;;;;5033816;28;20037;-64
2022/04/14 02:11:10;;;;;;;2.55;2.28;;;11.50;63.70;;;;;;5033492;28;20029;-64
2022/04/14 02:13:36;;;;;;;2.10;1.90;;;11.50;63.80;;;;;;5032052;28;20030;-64
2022/04/14 02:16:02;;;;;;;1.85;1.75;;;11.50;63.80;;;;;;5034035;28;20030;-65
2022/04/14 02:18:28;;;;;;;2.10;1.90;;;11.50;63.80;;;;;;5033843;28;20026;-64
2022/04/14 02:20:53;;;;;;;2.25;2.05;;;11.50;63.80;;;;;;5033722;28;20065;-64
2022/04/14 02:23:19;;;;;;;2.22;1.90;;;11.50;63.80;;;;;;5033731;28;20116;-64
2022/04/14 02:25:46;;;;;;;1.90;1.80;;;11.50;63.80;;;;;;5032081;28;20025;-63
2022/04/14 02:28:13;;;;;;;1.95;1.80;;;11.50;63.80;;;;;;5033842;28;20049;-64
2022/04/14 02:30:39;;;;;;;2.20;2.00;;;11.50;63.80;;;;;;5033722;28;20056;-64
2022/04/14 02:33:05;;;;;;;2.33;2.10;;;11.50;63.80;;;;;;5033108;28;20021;-63
2022/04/14 02:35:30;;;;;;;2.22;2.03;;;11.50;63.80;;;;;;5033748;28;20021;-64
2022/04/14 02:37:56;;;;;;;2.03;1.88;;;11.50;63.80;;;;;;5033456;28;20171;-64
2022/04/14 02:40:24;;;;;;;2.17;1.98;;;11.50;63.80;;;;;;5033371;28;20025;-64
2022/04/14 02:42:50;;;;;;;1.88;1.73;;;11.50;63.80;;;;;;5033397;28;20033;-63
2022/04/14 02:45:16;;;;;;;2.20;2.00;;;11.50;63.80;;;;;;5033498;28;20018;-63
2022/04/14 02:47:41;;;;;;;2.20;2.00;;;11.50;63.80;;;;;;5031782;28;20045;-63
2022/04/14 02:50:09;;;;;;;1.85;1.75;;;11.40;63.70;;;;;;5033227;28;20038;-63
2022/04/14 02:52:34;;;;;;;2.13;1.98;;;11.50;63.80;;;;;;5033043;28;20025;-63
2022/04/14 02:55:00;;;;;;;2.30;2.10;;;11.50;63.80;;;;;;5032422;28;20028;-63
2022/04/14 02:57:25;;;;;;;1.95;1.85;;;11.50;63.80;;;;;;5032770;28;20068;-63
2022/04/14 02:59:51;;;;;;;2.20;2.00;;;11.50;63.80;;;;;;5032714;28;20068;-63
2022/04/14 03:02:17;;;;;;;2.10;2.00;;;11.50;63.80;;;;;;5031374;28;20494;-64
2022/04/14 03:04:43;;;;;;;2.05;1.95;;;11.50;63.80;;;;;;5033449;28;20083;-64
2022/04/14 03:07:08;;;;;;;2.25;2.05;;;11.50;63.80;;;;;;5033545;28;20412;-64
2022/04/14 03:09:34;;;;;;;2.05;1.85;;;11.50;63.80;;;;;;5032875;28;20446;-64
2022/04/14 03:12:00;;;;;;;2.13;2.00;;;11.50;63.80;;;;;;5032060;28;20075;-64
2022/04/14 03:14:25;;;;;;;2.33;2.00;;;11.50;63.80;;;;;;5033376;28;20379;-64
2022/04/14 03:16:51;;;;;;;2.35;2.05;;;11.50;63.80;;;;;;5033226;28;20380;-64
2022/04/14 03:19:17;;;;;;;2.10;1.90;;;11.50;63.90;;;;;;5032968;28;20036;-64
2022/04/14 03:21:42;;;;;;;2.05;1.85;;;11.50;63.80;;;;;;5034293;28;20112;-64
2022/04/14 03:24:08;;;;;;;2.30;2.10;;;11.50;63.80;;;;;;5036938;28;20067;-64
2022/04/14 03:26:34;;;;;;;2.60;2.13;;;11.50;63.90;;;;;;5037214;28;20040;-64
2022/04/14 03:28:59;;;;;;;2.00;1.90;;;11.50;63.80;;;;;;5036958;28;20499;-64
2022/04/14 03:31:25;;;;;;;2.00;1.90;;;11.50;64.10;;;;;;5037148;28;20448;-64
2022/04/14 03:33:51;;;;;;;2.20;2.00;;;11.50;63.90;;;;;;5035672;28;20112;-64
2022/04/14 03:36:16;;;;;;;2.10;1.90;;;11.40;63.80;;;;;;5036562;28;20108;-64
2022/04/14 03:38:42;;;;;;;2.40;2.20;;;11.50;63.80;;;;;;5036017;28;20466;-64
2022/04/14 03:41:08;;;;;;;2.15;2.00;;;11.50;63.80;;;;;;5036885;28;20368;-64
2022/04/14 03:43:35;;;;;;;2.00;1.90;;;11.50;63.80;;;;;;5036511;28;20388;-64
2022/04/14 03:46:02;;;;;;;2.22;2.03;;;11.50;63.80;;;;;;5036445;28;20112;-64
2022/04/14 03:48:29;;;;;;;2.00;1.90;;;11.50;63.80;;;;;;5035330;28;20491;-64
2022/04/14 03:50:55;;;;;;;2.08;1.90;;;11.50;63.80;;;;;;5036444;28;20044;-64
2022/04/14 03:53:20;;;;;;;2.28;2.00;;;11.50;63.80;;;;;;5036348;28;20032;-64
2022/04/14 03:55:46;;;;;;;2.13;1.90;;;11.50;63.80;;;;;;5036096;28;20029;-64
2022/04/14 03:58:12;;;;;;;2.00;1.88;;;11.50;63.80;;;;;;5036474;28;20460;-64
2022/04/14 04:00:38;;;;;;;1.90;1.80;;;11.50;63.70;;;;;;5036245;28;20108;-64
2022/04/14 04:03:04;;;;;;;1.80;1.70;;;11.50;63.80;;;;;;5035681;28;20515;-64
2022/04/14 04:05:30;;;;;;;1.95;1.80;;;11.50;63.70;;;;;;5036777;28;20037;-64
2022/04/14 04:07:55;;;;;;;1.77;1.67;;;11.60;63.80;;;;;;5035959;28;20025;-64
2022/04/14 04:10:21;;;;;;;1.85;1.75;;;11.60;63.80;;;;;;5035991;28;20091;-64
2022/04/14 04:12:47;;;;;;;2.20;2.00;;;11.60;63.80;;;;;;5036453;28;20022;-64
2022/04/14 04:15:12;;;;;;;1.95;1.85;;;11.60;63.80;;;;;;5035902;28;20061;-64
2022/04/14 04:17:39;;;;;;;1.90;1.80;;;11.60;63.70;;;;;;5034693;28;20036;-64
2022/04/14 04:20:06;;;;;;;1.90;1.80;;;11.60;63.70;;;;;;5035927;28;20116;-63
2022/04/14 04:22:33;;;;;;;1.80;1.70;;;11.60;63.70;;;;;;5035678;28;20087;-64
2022/04/14 04:24:59;;;;;;;1.70;1.60;;;11.60;63.70;;;;;;5036146;28;20056;-64
2022/04/14 04:27:26;;;;;;;1.80;1.70;;;11.60;63.70;;;;;;5035898;28;20025;-64
2022/04/14 04:29:52;;;;;;;1.95;1.83;;;11.60;63.70;;;;;;5035750;28;20037;-64
2022/04/14 04:32:18;;;;;;;2.08;1.90;;;11.60;63.70;;;;;;5035321;28;20040;-64
2022/04/14 04:34:44;;;;;;;1.95;1.85;;;11.60;63.70;;;;;;5035632;28;20026;-64
2022/04/14 04:37:09;;;;;;;1.80;1.70;;;11.60;63.70;;;;;;5034232;28;20411;-64
2022/04/14 04:39:35;;;;;;;1.77;1.67;;;11.60;63.70;;;;;;5035670;28;20033;-64
2022/04/14 04:42:01;;;;;;;2.10;1.90;;;11.70;63.70;;;;;;5035525;28;20029;-63
2022/04/14 04:44:26;;;;;;;2.08;1.90;;;11.70;63.70;;;;;;5035743;28;20025;-63
2022/04/14 04:46:52;;;;;;;2.05;1.92;;;11.70;63.70;;;;;;5035417;28;20076;-63
2022/04/14 04:49:18;;;;;;;1.60;1.50;;;11.80;64.20;;;;;;5035265;28;20056;-63
2022/04/14 04:51:43;;;;;;;2.22;2.00;;;11.70;63.60;;;;;;5033878;28;20527;-63
2022/04/14 04:54:09;;;;;;;1.90;1.80;;;11.80;63.60;;;;;;5035022;28;20108;-63
2022/04/14 04:56:35;;;;;;;1.90;1.80;;;11.80;63.50;;;;;;5035249;28;20044;-64
2022/04/14 04:59:02;;;;;;;2.17;1.83;;;11.90;63.60;;;;;;5035322;28;20025;-64
2022/04/14 05:01:27;;;;;;;2.03;1.65;;;11.90;63.50;;;;;;5039209;28;20025;-64
2022/04/14 05:03:53;;;;;;;1.60;1.50;;;11.90;63.50;;;;;;5054894;28;20441;-65
2022/04/14 05:06:19;;;;;;;2.05;1.88;;;11.90;63.40;;;;;;5051747;28;20033;-65
2022/04/14 05:08:46;;;;;;;1.95;1.80;;;12.00;63.50;;;;;;5053445;28;20033;-65
2022/04/14 05:11:12;;;;;;;1.80;1.70;;;12.00;63.40;;;;;;5052913;28;20467;-65
2022/04/14 05:13:38;;;;;;;1.80;1.70;;;12.00;64.00;;;;;;5053638;28;20033;-65
2022/04/14 05:16:06;;;;;;;1.80;1.70;;;12.00;63.30;;;;;;5054108;28;20044;-65
2022/04/14 05:18:34;;;;;;;2.08;1.80;;;12.00;63.30;;;;;;5034441;28;20144;-66
2022/04/14 05:21:00;;;;;;;1.80;1.70;;;12.10;63.30;;;;;;5041981;28;20483;-64
2022/04/14 05:23:26;;;;;;;1.70;1.60;;;12.10;63.20;;;;;;5042400;28;20026;-65
2022/04/14 05:25:52;;;;;;;2.00;1.80;;;12.20;63.30;;;;;;5042718;28;20758;-65
2022/04/14 05:28:17;;;;;;;1.70;1.60;;;12.20;63.20;;;;;;5040578;28;20018;-65
2022/04/14 05:30:43;;;;;;;1.80;1.70;;;12.20;63.20;;;;;;5045213;28;20033;-65
2022/04/14 05:33:10;;;;;;;1.90;1.80;;;12.30;63.10;;;;;;5037363;28;20025;-67
2022/04/14 05:35:40;;;;;;;1.60;1.50;;;12.30;63.10;;;;;;5053401;28;20021;-67
2022/04/14 05:38:06;;;;;;;1.77;1.67;;;12.30;63.10;;;;;;5054079;28;20045;-65
2022/04/14 05:40:32;;;;;;;1.80;1.70;;;12.30;63.10;;;;;;5054231;28;20025;-66
2022/04/14 05:42:58;;;;;;;1.73;1.63;;;12.40;63.10;;;;;;5053834;28;20116;-66
2022/04/14 05:45:24;;;;;;;1.50;1.40;;;12.40;63.00;;;;;;5053295;28;20053;-66
2022/04/14 05:47:49;;;;;;;1.70;1.60;;;12.40;63.00;;;;;;5052263;28;20045;-67
2022/04/14 05:50:15;;;;;;;1.60;1.50;;;12.50;63.00;;;;;;5047843;28;20082;-65
2022/04/14 05:52:42;;;;;;;1.80;1.70;;;12.50;62.90;;;;;;5049882;28;20029;-66
2022/04/14 05:55:08;;;;;;;2.00;1.80;;;12.60;62.90;;;;;;5053104;28;20033;-66
2022/04/14 05:57:34;;;;;;;1.50;1.40;;;12.70;62.80;;;;;;5044718;28;20108;-66
2022/04/14 06:00:00;;;;;;;1.60;1.50;;;12.70;62.70;;;;;;5041084;28;20113;-66
2022/04/14 06:02:26;;;;;;;1.70;1.60;;;12.80;62.60;;;;;;5042867;28;20060;-66
2022/04/14 06:04:52;;;;;;;1.60;1.50;;;12.90;62.60;;;;;;5042564;28;20033;-66
2022/04/14 06:07:18;;;;;;;1.88;1.77;;;12.90;62.50;;;;;;5043419;28;20116;-66
2022/04/14 06:09:44;;;;;;;1.60;1.50;;;13.00;62.40;;;;;;5045728;28;20120;-65
2022/04/14 06:12:10;;;;;;;1.83;1.55;;;13.10;62.40;;;;;;5042158;28;20025;-66
2022/04/14 06:14:35;;;;;;;1.70;1.60;;;13.10;62.30;;;;;;5039515;28;20026;-66
2022/04/14 06:17:02;;;;;;;1.60;1.50;;;13.20;62.20;;;;;;5042954;28;20037;-66
2022/04/14 06:19:28;;;;;;;1.52;1.42;;;13.20;62.20;;;;;;5041666;28;20379;-69
2022/04/14 06:21:54;;;;;;;1.60;1.50;;;13.20;62.10;;;;;;5041884;28;20032;-68
2022/04/14 06:24:19;;;;;;;1.85;1.75;;;13.30;62.00;;;;;;5042984;28;20018;-68
2022/04/14 06:26:45;;;;;;;1.70;1.60;;;13.40;62.00;;;;;;5051928;28;20033;-68
2022/04/14 06:29:11;;;;;;;1.70;1.60;;;13.40;61.80;;;;;;5051931;28;20033;-68
2022/04/14 06:31:37;;;;;;;1.60;1.50;;;13.50;61.80;;;;;;5051678;28;20021;-67
2022/04/14 06:34:05;;;;;;;1.98;1.63;;;13.50;61.70;;;;;;5052765;28;20729;-65
2022/04/14 06:36:30;;;;;;;1.60;1.50;;;13.50;61.60;;;;;;5051829;28;20021;-65
2022/04/14 06:38:56;;;;;;;1.38;1.23;;;13.60;61.60;;;;;;5053175;28;20029;-65
2022/04/14 06:41:22;;;;;;;1.77;1.67;;;13.60;61.50;;;;;;5053019;28;20025;-66
2022/04/14 06:43:49;;;;;;;1.50;1.40;;;13.60;61.50;;;;;;5052874;28;20036;-66
2022/04/14 06:46:18;;;;;;;1.60;1.50;;;13.70;61.40;;;;;;5052693;28;20017;-65
2022/04/14 06:48:44;;;;;;;1.50;1.40;;;13.70;61.30;;;;;;5052797;28;20081;-68
2022/04/14 06:51:11;;;;;;;1.75;1.50;;;13.80;61.30;;;;;;5053070;28;20462;-69
2022/04/14 06:53:38;;;;;;;1.50;1.40;;;13.80;61.30;;;;;;5051815;28;20027;-67
2022/04/14 06:56:04;;;;;;;1.45;1.35;;;13.90;61.30;;;;;;5052677;28;20029;-65
2022/04/14 06:58:30;;;;;;;1.60;1.50;;;13.90;61.20;;;;;;5051657;28;20021;-70
2022/04/14 07:00:56;;;;;;;1.13;1.13;;;14.00;61.20;;;;;;5051276;28;20119;-68
2022/04/14 07:03:26;;;;;;;1.40;1.30;;;14.00;61.10;;;;;;5052510;28;20055;-68
2022/04/14 07:05:54;;;;;;;1.63;1.48;;;14.00;61.00;;;;;;5052945;28;20033;-68
2022/04/14 07:08:21;;;;;;;1.52;1.42;;;14.10;61.00;;;;;;5052847;28;20029;-68
2022/04/14 07:10:46;;;;;;;1.25;1.23;;;14.10;60.90;;;;;;5052777;28;20132;-69
2022/04/14 07:13:12;;;;;;;1.42;1.33;;;14.10;60.80;;;;;;5051291;28;20052;-67
2022/04/14 07:15:38;;;;;;;1.40;1.30;;;14.20;60.80;;;;;;5052415;28;20083;-69
2022/04/14 07:18:04;;;;;;;1.45;1.35;;;14.20;60.70;;;;;;5051443;28;20143;-68
2022/04/14 07:20:30;;;;;;;1.50;1.40;;;14.30;60.60;;;;;;5053038;28;20050;-68
2022/04/14 07:22:58;;;;;;;1.30;1.30;;;14.30;60.60;;;;;;5051410;28;20100;-67
2022/04/14 07:25:24;;;;;;;1.70;1.60;;;14.30;60.60;;;;;;5052720;28;20032;-67
2022/04/14 07:27:50;;;;;;;1.33;1.23;;;14.40;61.10;;;;;;5051172;28;20025;-66
2022/04/14 07:30:16;;;;;;;1.40;1.30;;;14.40;60.50;;;;;;5052482;28;20152;-66
2022/04/14 07:32:45;;;;;;;1.40;1.30;;;14.40;60.40;;;;;;5051597;28;20032;-69
2022/04/14 07:35:13;;;;;;;1.30;1.20;;;14.50;60.30;;;;;;5052425;28;20486;-67
2022/04/14 07:37:39;;;;;;;1.40;1.30;;;14.50;60.30;;;;;;5052716;28;20029;-67
2022/04/14 07:40:06;;;;;;;1.50;1.40;;;14.50;60.20;;;;;;5052335;28;20060;-69
2022/04/14 07:42:35;;;;;;;1.15;1.15;;;14.50;60.20;;;;;;5052382;28;20067;-68
2022/04/14 07:45:00;;;;;;;1.50;1.40;;;14.50;60.10;;;;;;5052113;28;20104;-68
2022/04/14 07:47:26;;;;;;;1.40;1.30;;;14.50;60.70;;;;;;5052494;28;20527;-69
2022/04/14 07:49:52;;;;;;;1.42;1.33;;;14.50;60.10;;;;;;5052152;28;20033;-67
2022/04/14 07:52:17;;;;;;;1.58;1.48;;;14.50;60.00;;;;;;5052595;28;20025;-68
2022/04/14 07:54:44;;;;;;;1.50;1.40;;;14.50;60.10;;;;;;5052258;28;20029;-66
2022/04/14 07:57:10;;;;;;;1.63;1.48;;;14.50;60.10;;;;;;5047512;28;20039;-69
2022/04/14 07:59:36;;;;;;;1.30;1.20;;;14.50;60.00;;;;;;5034728;28;20057;-69
2022/04/14 08:02:02;;;;;;;1.13;1.10;;;14.50;60.00;;;;;;5040303;28;20060;-68
2022/04/14 08:04:27;;;;;;;1.38;1.27;;;14.50;60.00;;;;;;5031698;28;20034;-69
2022/04/14 08:06:53;;;;;;;1.40;1.30;;;14.60;60.00;;;;;;5034473;28;20450;-70
2022/04/14 08:09:20;;;;;;;1.10;1.10;;;14.60;60.00;;;;;;5040787;28;20029;-68
2022/04/14 08:11:46;;;;;;;1.45;1.35;;;14.60;59.90;;;;;;5041673;28;20040;-71
2022/04/14 08:14:12;;;;;;;1.40;1.30;;;14.70;60.00;;;;;;5041108;28;20108;-68
2022/04/14 08:16:37;;;;;;;1.40;1.30;;;14.70;59.90;;;;;;5044786;28;20037;-70
2022/04/14 08:19:03;;;;;;;1.17;1.17;;;14.70;59.80;;;;;;5036421;28;20443;-69
2022/04/14 08:21:29;;;;;;;1.35;1.25;;;14.70;59.70;;;;;;5038759;28;20025;-67
2022/04/14 08:23:55;;;;;;;1.10;1.10;;;14.80;59.70;;;;;;5039773;28;20061;-68
2022/04/14 08:26:21;;;;;;;1.23;1.20;;;14.80;59.70;;;;;;5036772;28;20412;-67
2022/04/14 08:28:48;;;;;;;1.30;1.30;;;14.80;60.00;;;;;;5049342;28;20091;-69
2022/04/14 08:31:14;;;;;;;1.40;1.30;;;14.90;59.60;;;;;;5053922;28;20048;-67
2022/04/14 08:33:41;;;;;;;1.55;1.45;;;14.90;59.50;;;;;;5055220;28;20071;-67
2022/04/14 08:36:12;;;;;;;1.42;1.33;;;15.00;59.50;;;;;;5036243;28;20025;-68
2022/04/14 08:38:39;;;;;;;1.30;1.20;;;15.00;59.40;;;;;;5035536;28;20029;-68
2022/04/14 08:41:08;;;;;;;1.50;1.40;;;15.10;59.40;;;;;;5035113;28;20065;-68
2022/04/14 08:43:35;;;;;;;1.30;1.20;;;15.10;59.30;;;;;;5035549;28;20025;-67
2022/04/14 08:46:06;;;;;;;1.20;1.13;;;15.20;59.30;;;;;;5035414;28;20057;-67
2022/04/14 08:48:34;;;;;;;1.23;1.13;;;15.20;59.30;;;;;;5033863;28;20057;-68
2022/04/14 08:51:01;;;;;;;1.20;1.10;;;15.20;59.20;;;;;;5033630;28;20034;-68
2022/04/14 08:53:27;;;;;;;1.40;1.30;;;15.20;59.10;;;;;;5033771;28;20026;-67
2022/04/14 08:55:53;;;;;;;1.45;1.35;;;15.20;59.10;;;;;;5034875;28;20025;-68
2022/04/14 08:58:26;;;;;;;1.38;1.20;;;15.30;59.10;;;;;;5033874;28;20113;-69
2022/04/14 09:00:53;;;;;;;1.13;1.02;;;15.30;58.90;;;;;;5033770;28;20092;-68
2022/04/14 09:03:19;;;;;;;1.30;1.20;;;15.40;59.00;;;;;;5034941;28;20028;-67
2022/04/14 09:05:45;;;;;;;1.10;1.10;;;15.40;58.90;;;;;;5035175;28;20025;-68
2022/04/14 09:08:11;;;;;;;1.10;1.10;;;15.40;58.80;;;;;;5033216;28;20033;-68
2022/04/14 09:10:37;;;;;;;1.45;1.35;;;15.40;58.80;;;;;;5034297;28;20088;-67
2022/04/14 09:13:03;;;;;;;1.30;1.25;;;15.50;58.80;;;;;;5034558;28;20057;-68
2022/04/14 09:15:29;;;;;;;1.23;1.20;;;15.50;58.70;;;;;;5033405;28;20022;-68
2022/04/14 09:17:55;;;;;;;1.10;1.00;;;15.50;59.30;;;;;;5034272;28;20033;-68
2022/04/14 09:20:28;;;;;;;1.27;1.17;;;15.50;58.60;;;;;;5031828;28;20479;-68
2022/04/14 09:23:10;;;;;;;1.40;1.30;;;15.50;58.60;;;;;;5034460;28;20472;-67
2022/04/14 09:25:36;;;;;;;1.17;1.10;;;15.50;58.50;;;;;;5033048;28;20029;-67
2022/04/14 09:28:19;;;;;;;1.40;1.30;;;15.60;58.50;;;;;;5033991;28;20025;-67
2022/04/14 09:31:19;;;;;;;1.10;1.02;;;15.60;58.40;;;;;;5034090;28;20034;-68
2022/04/14 09:33:46;;;;;;;1.17;1.08;;;15.60;58.40;;;;;;5027429;28;20029;-68
2022/04/14 09:36:18;;;;;;;1.30;1.20;;;15.60;58.40;;;;;;5054368;28;20025;-68
2022/04/14 09:38:58;;;;;;;1.23;1.13;;;15.60;59.00;;;;;;5054087;28;20033;-68
2022/04/14 09:41:41;;;;;;;1.30;1.20;;;15.70;58.40;;;;;;5053927;28;20439;-67
2022/04/14 09:44:12;;;;;;;1.27;1.17;;;15.70;58.40;;;;;;5053889;28;20467;-68
2022/04/14 09:46:43;;;;;;;1.15;1.15;;;15.70;58.30;;;;;;5052632;28;20063;-68
2022/04/14 09:49:10;;;;;;;1.27;1.20;;;15.70;58.30;;;;;;5045277;28;20095;-67
2022/04/14 09:51:47;;;;;;;1.35;1.25;;;15.70;58.30;;;;;;5033338;28;20108;-67
2022/04/14 09:54:18;;;;;;;1.13;1.10;;;15.80;58.20;;;;;;5040988;28;20538;-68
2022/04/14 09:56:52;;;;;;;1.30;1.20;;;15.80;58.20;;;;;;5035918;28;20115;-67
2022/04/14 09:59:20;;;;;;;1.50;1.40;;;15.90;58.20;;;;;;5041423;28;20026;-67
2022/04/14 10:01:46;;;;;;;1.30;1.20;;;15.80;58.10;;;;;;5041384;28;20033;-68
2022/04/14 10:04:35;;;;;;;1.25;1.17;;;15.90;58.10;;;;;;5041238;28;20087;-70
2022/04/14 10:07:08;;;;;;;1.60;1.50;;;15.90;58.00;;;;;;5042067;28;20037;-67
2022/04/14 10:09:35;;;;;;;1.20;1.10;;;15.90;58.00;;;;;;5041836;28;20048;-67
2022/04/14 10:12:02;;;;;;;1.55;1.45;;;15.90;58.00;;;;;;5041442;28;20578;-67
2022/04/14 10:14:28;;;;;;;1.20;1.20;;;15.90;58.00;;;;;;5040752;28;20024;-67
2022/04/14 10:16:54;;;;;;;1.00;1.00;;;15.90;58.00;;;;;;5042109;28;20096;-68
2022/04/14 10:19:20;;;;;;;1.70;1.42;;;15.90;57.90;;;;;;5042478;28;20472;-67
2022/04/14 10:21:46;;;;;;;1.17;1.10;;;15.90;57.90;;;;;;5044042;28;20025;-68
2022/04/14 10:24:13;;;;;;;1.13;1.10;;;15.90;57.90;;;;;;5052284;28;20364;-68
2022/04/14 10:26:38;;;;;;;1.83;1.48;;;16.00;58.50;;;;;;5052445;28;20025;-68
2022/04/14 10:29:06;;;;;;;1.20;1.20;;;16.00;57.90;;;;;;5050091;28;20027;-68
2022/04/14 10:31:36;;;;;;;1.00;1.00;;;16.00;57.80;;;;;;5048985;28;20108;-67
2022/04/14 10:34:04;;;;;;;1.95;1.27;;;16.10;57.80;;;;;;5042643;28;20035;-68
2022/04/14 10:36:41;;;;;;;1.38;1.27;;;16.10;57.70;;;;;;5052660;28;20513;-67
2022/04/14 10:39:11;;;;;;;1.25;1.15;;;16.00;57.60;;;;;;5050640;28;20039;-67
2022/04/14 10:41:41;;;;;;;1.30;1.30;;;16.10;57.70;;;;;;5044132;28;20533;-69
2022/04/14 10:44:06;;;;;;;1.45;1.33;;;16.10;57.70;;;;;;5053019;28;20021;-69
2022/04/14 10:46:40;;;;;;;1.20;1.20;;;16.10;57.60;;;;;;5052900;28;20025;-68
2022/04/14 10:49:14;;;;;;;1.57;1.47;;;16.00;57.60;;;;;;5052268;28;20483;-69
2022/04/14 10:51:40;;;;;;;1.65;1.40;;;16.10;57.60;;;;;;5046067;28;20037;-70
2022/04/14 10:54:11;;;;;;;1.35;1.25;;;16.10;57.60;;;;;;5034724;28;20076;-67
2022/04/14 10:56:36;;;;;;;1.40;1.30;;;16.00;57.50;;;;;;5032116;28;20380;-68
2022/04/14 10:59:04;;;;;;;1.17;1.17;;;16.10;57.60;;;;;;5032459;28;20025;-68
2022/04/14 11:01:45;;;;;;;1.33;1.23;;;16.10;57.60;;;;;;5032886;28;20033;-69
2022/04/14 11:04:29;;;;;;;1.15;1.13;;;16.10;57.50;;;;;;5032494;28;20029;-68
2022/04/14 11:07:15;;;;;;;1.13;1.13;;;16.10;57.50;;;;;;5032449;28;20038;-66
2022/04/14 11:09:50;;;;;;;1.40;1.27;;;16.10;57.50;;;;;;5039884;28;20041;-68
2022/04/14 11:12:19;;;;;;;1.48;1.38;;;16.10;57.50;;;;;;5052797;28;20483;-68
2022/04/14 11:14:48;;;;;;;0.95;0.95;;;16.20;58.10;;;;;;5048614;28;20124;-69
2022/04/14 11:17:38;;;;;;;1.30;1.20;;;16.20;57.50;;;;;;5037720;28;20037;-68
2022/04/14 11:20:13;;;;;;;1.30;1.20;;;16.20;57.40;;;;;;5035522;28;20037;-68
2022/04/14 11:23:01;;;;;;;1.30;1.20;;;16.20;57.40;;;;;;5031841;28;20054;-68
2022/04/14 11:25:49;;;;;;;1.20;1.20;;;16.20;57.30;;;;;;5036575;28;20057;-66
2022/04/14 11:28:25;;;;;;;1.30;1.17;;;16.20;57.30;;;;;;5041117;28;20032;-66
2022/04/14 11:30:56;;;;;;;1.17;1.10;;;16.20;57.20;;;;;;5039287;28;20037;-66
2022/04/14 11:33:30;;;;;;;1.17;1.15;;;16.30;57.30;;;;;;5038468;28;20029;-66
2022/04/14 11:36:14;;;;;;;;;;;16.30;57.20;;;;;;5044526;28;20063;-66
2022/04/14 11:39:05;;;;;;;1.05;1.05;;;16.20;57.00;;;;;;5041361;28;19909;-66
2022/04/14 11:41:41;;;;;;;1.30;1.20;;;16.30;57.10;;;;;;5040205;28;20032;-66
2022/04/14 11:44:16;;;;;;;1.17;1.10;;;16.40;57.10;;;;;;5043848;28;20070;-66
2022/04/14 11:46:55;;;;;;;1.30;1.20;;;16.40;57.10;;;;;;5056190;28;20056;-66
2022/04/14 11:49:32;;;;;;;1.27;1.13;;;16.40;57.00;;;;;;5054854;28;20045;-66
2022/04/14 11:51:59;;;;;;;0.90;0.90;;;16.40;57.00;;;;;;5056199;28;20029;-65
2022/04/14 11:54:31;;;;;;;1.20;1.10;;;16.50;57.00;;;;;;5055817;28;20490;-66
2022/04/14 11:56:58;;;;;;;1.10;1.10;;;16.50;57.00;;;;;;5055179;28;20074;-68
2022/04/14 11:59:32;;;;;;;1.13;1.10;;;16.50;57.00;;;;;;5055693;28;20056;-67
2022/04/14 12:02:08;;;;;;;1.20;1.13;;;16.60;57.00;;;;;;5055528;28;20430;-67
2022/04/14 12:04:35;;;;;;;1.10;1.10;;;16.50;56.90;;;;;;5055535;28;20032;-67
2022/04/14 12:07:01;;;;;;;1.30;1.20;;;16.60;56.90;;;;;;5055256;28;20071;-67
2022/04/14 12:09:27;;;;;;;1.02;0.93;;;16.60;56.90;;;;;;5055571;28;20482;-67
2022/04/14 12:11:53;;;;;;;1.40;1.30;;;16.70;56.90;;;;;;5055786;28;20057;-67
2022/04/14 12:14:19;;;;;;;1.10;1.10;;;16.70;56.90;;;;;;5055761;28;20021;-67
2022/04/14 12:16:50;;;;;;;1.27;1.17;;;16.70;56.90;;;;;;5055453;28;20025;-67
2022/04/14 12:19:17;;;;;;;1.15;1.05;;;16.70;56.80;;;;;;5055639;28;20024;-67
2022/04/14 12:21:42;;;;;;;1.27;1.17;;;16.70;56.80;;;;;;5055353;28;20036;-67
2022/04/14 12:24:08;;;;;;;1.33;1.23;;;16.70;56.80;;;;;;5055741;28;20033;-66
2022/04/14 12:26:37;;;;;;;1.10;1.10;;;16.70;56.80;;;;;;5055728;28;20463;-68
2022/04/14 12:29:09;;;;;;;1.17;1.08;;;16.80;56.80;;;;;;5055195;28;20017;-67
2022/04/14 12:31:35;;;;;;;1.33;1.23;;;16.80;56.70;;;;;;5055256;28;20029;-65
2022/04/14 12:34:01;;;;;;;1.08;1.08;;;16.80;56.70;;;;;;5054751;28;20025;-65
2022/04/14 12:36:37;;;;;;;1.42;1.33;;;16.90;56.70;;;;;;5053519;28;20119;-67
2022/04/14 12:39:20;;;;;;;1.30;1.20;;;16.90;56.60;;;;;;5053809;28;20120;-67
2022/04/14 12:41:47;;;;;;;1.10;1.10;;;17.00;56.60;;;;;;5053651;28;20083;-67
2022/04/14 12:44:18;;;;;;;1.00;1.00;;;17.00;56.60;;;;;;5053662;28;20484;-67
2022/04/14 12:46:50;;;;;;;1.00;1.00;;;17.00;56.60;;;;;;5053418;28;20124;-66
2022/04/14 12:49:22;;;;;;;1.10;1.10;;;17.10;56.50;;;;;;5055001;28;20045;-66
2022/04/14 12:51:59;;;;;;;1.15;1.05;;;17.10;56.50;;;;;;5054658;28;20411;-67